createdAt,value
2023-03-01T00:10:02.889Z,9.48
2023-03-01T00:20:24.857Z,9.68
2023-03-01T00:30:46.697Z,9.57
2023-03-01T00:41:10.697Z,9.85
2023-03-01T00:51:32.390Z,10.50
2023-03-01T01:01:54.014Z,9.00
2023-03-01T01:12:17.479Z,9.88
2023-03-01T01:22:38.541Z,9.90
2023-03-01T01:32:59.776Z,10.70
2023-03-01T01:43:30.172Z,10.93
2023-03-01T01:53:56.455Z,9.75
2023-03-01T02:04:18.331Z,10.00
2023-03-01T02:14:39.765Z,11.23
2023-03-01T02:25:04.394Z,10.60
2023-03-01T02:35:25.512Z,11.55
2023-03-01T02:45:53.743Z,11.57
2023-03-01T03:06:36.150Z,11.02
2023-03-01T03:16:57.837Z,10.60
2023-03-01T03:27:18.788Z,11.43
2023-03-01T03:38:00.113Z,11.38
2023-03-01T03:48:22.035Z,11.90
2023-03-01T03:58:43.579Z,10.82
2023-03-01T04:09:06.071Z,11.30
2023-03-01T04:19:28.473Z,11.90
2023-03-01T04:29:49.573Z,11.40
2023-03-01T04:40:17.373Z,11.45
2023-03-01T04:50:38.606Z,11.25
2023-03-01T05:00:59.652Z,12.35
2023-03-01T05:11:21.870Z,11.82
2023-03-01T05:22:05.354Z,12.02
2023-03-01T05:32:27.041Z,12.38
2023-03-01T05:42:57.556Z,11.68
2023-03-01T05:53:22.280Z,12.68
2023-03-01T06:03:43.894Z,12.82
2023-03-01T06:14:05.722Z,12.20
2023-03-01T06:24:27.139Z,12.43
2023-03-01T06:34:48.454Z,11.50
2023-03-01T06:45:10.406Z,12.23
2023-03-01T06:55:32.304Z,12.82
2023-03-01T07:05:53.797Z,11.55
2023-03-01T07:16:15.753Z,12.88
2023-03-01T07:26:37.601Z,11.38
2023-03-01T07:36:58.958Z,10.93
2023-03-01T07:47:20.452Z,12.75
2023-03-01T07:57:41.697Z,12.52
2023-03-01T08:08:02.783Z,12.23
2023-03-01T08:18:24.169Z,13.13
2023-03-01T08:28:46.748Z,11.93
2023-03-01T08:39:09.709Z,13.43
2023-03-01T08:49:31.005Z,13.20
2023-03-01T08:59:52.039Z,13.57
2023-03-01T09:10:13.318Z,13.77
2023-03-01T09:20:34.587Z,13.55
2023-03-01T09:31:00.692Z,13.45
2023-03-01T09:41:32.772Z,13.63
2023-03-01T09:51:59.090Z,13.10
2023-03-01T10:02:39.947Z,13.23
2023-03-01T10:13:07.621Z,12.88
2023-03-01T10:23:31.941Z,11.70
2023-03-01T10:33:56.083Z,12.25
2023-03-01T10:44:44.099Z,11.73
2023-03-01T10:55:31.467Z,12.32
2023-03-01T11:06:03.032Z,11.73
2023-03-01T11:16:32.464Z,11.57
2023-03-01T11:26:56.093Z,11.95
2023-03-01T11:37:37.696Z,11.60
2023-03-01T11:48:48.451Z,10.38
2023-03-01T11:59:33.232Z,10.98
2023-03-01T12:10:18.814Z,11.65
2023-03-01T12:20:46.630Z,9.80
2023-03-01T12:31:30.532Z,11.17
2023-03-01T12:42:24.175Z,9.82
2023-03-01T12:52:46.380Z,10.50
2023-03-01T13:03:08.122Z,10.27
2023-03-01T13:13:31.475Z,9.98
2023-03-01T13:23:54.003Z,10.02
2023-03-01T13:34:44.485Z,11.00
2023-03-01T13:45:30.048Z,10.30
2023-03-01T13:55:59.812Z,9.38
2023-03-01T14:06:24.611Z,9.88
2023-03-01T14:17:16.184Z,9.95
2023-03-01T14:27:43.507Z,10.50
2023-03-01T14:38:04.784Z,9.63
2023-03-01T14:48:26.365Z,9.73
2023-03-01T14:58:51.247Z,9.60
2023-03-01T15:09:19.806Z,10.10
2023-03-01T15:19:41.416Z,9.00
2023-03-01T15:30:04.416Z,9.02
2023-03-01T15:40:32.820Z,9.57
2023-03-01T15:50:59.274Z,9.57
2023-03-01T16:01:20.523Z,8.63
2023-03-01T16:11:43.564Z,9.20
2023-03-01T16:22:05.078Z,9.43
2023-03-01T16:32:26.505Z,8.55
2023-03-01T16:42:49.342Z,8.15
2023-03-01T16:53:10.573Z,8.68
2023-03-01T17:03:32.108Z,9.00
2023-03-01T17:13:53.267Z,8.45
2023-03-01T17:24:14.410Z,8.13
2023-03-01T17:34:35.857Z,8.63
2023-03-01T17:44:56.819Z,8.65
2023-03-01T17:55:17.993Z,9.10
2023-03-01T18:05:39.251Z,8.38
2023-03-01T18:16:01.937Z,9.32
2023-03-01T18:26:25.480Z,9.10
2023-03-01T18:37:00.489Z,8.30
2023-03-01T18:47:28.581Z,8.93
2023-03-01T18:57:49.812Z,8.80
2023-03-01T19:08:10.669Z,8.77
2023-03-01T19:18:32.148Z,8.80
2023-03-01T19:28:53.298Z,8.75
2023-03-01T19:39:14.813Z,9.27
2023-03-01T19:49:37.953Z,9.48
2023-03-01T19:59:59.634Z,8.43
2023-03-01T20:10:20.841Z,8.60
2023-03-01T20:20:42.618Z,9.50
2023-03-01T20:31:11.757Z,9.05
2023-03-01T20:41:33.178Z,10.48
2023-03-01T20:51:54.289Z,9.50
2023-03-01T21:02:15.237Z,9.18
2023-03-01T21:12:36.619Z,9.82
2023-03-01T21:22:58.021Z,9.18
2023-03-01T21:33:19.122Z,10.48
2023-03-01T21:43:41.457Z,10.32
2023-03-01T21:54:03.516Z,10.32
2023-03-01T22:04:25.322Z,10.15
2023-03-01T22:14:46.362Z,10.27
2023-03-01T22:25:09.061Z,11.07
2023-03-01T22:35:30.097Z,10.55
2023-03-01T22:45:51.376Z,10.38
2023-03-01T22:56:15.503Z,10.00
2023-03-01T23:06:50.469Z,10.98
2023-03-01T23:17:13.241Z,11.15
2023-03-01T23:27:37.388Z,10.98
2023-03-01T23:37:58.416Z,11.38
2023-03-01T23:48:20.045Z,11.27
2023-03-01T23:58:41.226Z,11.43
